createdAt,value
2023-08-29T00:01:48.347Z,0.60
2023-08-29T00:04:31.091Z,0.75
2023-08-29T00:07:15.319Z,0.60
2023-08-29T00:09:58.027Z,0.73
2023-08-29T00:12:42.243Z,0.68
2023-08-29T00:15:25.129Z,0.65
2023-08-29T00:18:08.040Z,0.70
2023-08-29T00:20:51.032Z,0.52
2023-08-29T00:23:35.019Z,0.82
2023-08-29T00:26:20.492Z,0.88
2023-08-29T00:29:03.285Z,0.52
2023-08-29T00:31:45.933Z,0.50
2023-08-29T00:34:28.824Z,0.80
2023-08-29T00:37:11.628Z,0.80
2023-08-29T00:39:57.165Z,0.75
2023-08-29T00:42:39.895Z,0.50
2023-08-29T00:45:24.333Z,0.63
2023-08-29T00:48:08.618Z,0.70
2023-08-29T00:50:51.718Z,0.60
2023-08-29T00:53:36.321Z,0.57
2023-08-29T00:56:20.343Z,0.60
2023-08-29T00:59:03.791Z,0.73
2023-08-29T01:01:48.193Z,0.40
2023-08-29T01:04:32.107Z,0.40
2023-08-29T01:07:14.775Z,0.47
2023-08-29T01:09:59.553Z,0.55
2023-08-29T01:12:46.837Z,0.60
2023-08-29T01:15:31.740Z,0.82
2023-08-29T01:18:15.437Z,0.70
2023-08-29T01:21:01.188Z,0.50
2023-08-29T01:23:46.090Z,0.70
2023-08-29T01:26:31.023Z,0.50
2023-08-29T01:29:15.926Z,0.60
2023-08-29T01:31:58.884Z,0.47
2023-08-29T01:34:43.231Z,0.40
2023-08-29T01:37:25.949Z,0.45
2023-08-29T01:40:09.407Z,0.50
2023-08-29T01:42:53.436Z,0.50
2023-08-29T01:45:36.127Z,0.55
2023-08-29T01:48:18.858Z,0.60
2023-08-29T01:51:02.022Z,0.50
2023-08-29T01:53:45.699Z,0.68
2023-08-29T01:56:30.842Z,0.50
2023-08-29T01:59:14.868Z,0.73
2023-08-29T02:01:58.293Z,0.63
2023-08-29T02:04:41.059Z,0.77
2023-08-29T02:07:24.004Z,0.80
2023-08-29T02:10:07.275Z,0.90
2023-08-29T02:12:49.945Z,0.70
2023-08-29T02:15:33.923Z,0.70
2023-08-29T02:18:16.607Z,0.80
2023-08-29T02:20:59.398Z,0.70
2023-08-29T02:23:44.051Z,0.77
2023-08-29T02:26:26.683Z,0.50
2023-08-29T02:29:09.719Z,0.55
2023-08-29T02:31:53.741Z,0.70
2023-08-29T02:34:36.396Z,0.60
2023-08-29T02:37:19.474Z,0.50
2023-08-29T02:40:02.228Z,0.70
2023-08-29T02:42:45.072Z,0.60
2023-08-29T02:45:27.680Z,0.70
2023-08-29T02:48:11.863Z,0.80
2023-08-29T02:50:54.573Z,0.70
2023-08-29T02:53:37.189Z,0.65
2023-08-29T02:56:20.374Z,0.60
2023-08-29T02:59:03.147Z,0.40
2023-08-29T03:01:45.828Z,0.40
2023-08-29T03:04:31.227Z,0.60
2023-08-29T03:07:13.834Z,0.60
2023-08-29T03:09:56.634Z,0.50
2023-08-29T03:12:39.331Z,0.68
2023-08-29T03:15:22.052Z,0.80
2023-08-29T03:18:05.321Z,0.95
2023-08-29T03:20:50.495Z,0.90
2023-08-29T03:23:33.158Z,0.70
2023-08-29T03:26:16.419Z,0.50
2023-08-29T03:28:59.179Z,0.47
2023-08-29T03:31:41.845Z,0.60
2023-08-29T03:34:24.483Z,0.50
2023-08-29T03:37:09.471Z,0.70
2023-08-29T03:39:52.120Z,1.10
2023-08-29T03:42:34.793Z,0.73
2023-08-29T03:45:19.359Z,0.70
2023-08-29T03:48:05.612Z,0.70
2023-08-29T03:50:50.801Z,1.00
2023-08-29T03:53:34.907Z,0.85
2023-08-29T03:56:17.723Z,0.90
2023-08-29T03:59:02.353Z,0.93
2023-08-29T04:01:45.031Z,0.90
2023-08-29T04:04:27.806Z,0.90
2023-08-29T04:07:10.653Z,0.65
2023-08-29T04:09:57.919Z,0.60
2023-08-29T04:12:40.601Z,0.80
2023-08-29T04:15:24.952Z,0.73
2023-08-29T04:18:09.433Z,0.80
2023-08-29T04:20:52.433Z,0.60
2023-08-29T04:23:35.073Z,0.70
2023-08-29T04:26:19.281Z,0.80
2023-08-29T04:29:01.911Z,0.85
2023-08-29T04:31:45.213Z,0.73
2023-08-29T04:34:27.885Z,0.80
2023-08-29T04:37:11.775Z,0.75
2023-08-29T04:39:54.742Z,1.00
2023-08-29T04:42:40.281Z,0.70
2023-08-29T04:45:24.558Z,0.77
2023-08-29T04:48:07.885Z,0.60
2023-08-29T04:50:50.850Z,0.50
2023-08-29T04:53:33.742Z,0.90
2023-08-29T04:56:16.557Z,1.02
2023-08-29T04:59:00.549Z,0.93
2023-08-29T05:01:44.697Z,1.00
2023-08-29T05:04:27.404Z,0.90
2023-08-29T05:07:10.337Z,0.65
2023-08-29T05:09:53.175Z,0.80
2023-08-29T05:12:35.894Z,0.80
2023-08-29T05:15:19.919Z,0.77
2023-08-29T05:18:03.776Z,0.63
2023-08-29T05:20:46.549Z,0.90
2023-08-29T05:23:29.260Z,0.70
2023-08-29T05:26:13.466Z,0.70
2023-08-29T05:28:56.360Z,0.57
2023-08-29T05:31:40.694Z,0.60
2023-08-29T05:34:23.515Z,0.70
2023-08-29T05:37:06.233Z,0.63
2023-08-29T05:39:48.979Z,0.70
2023-08-29T05:42:31.636Z,0.70
2023-08-29T05:45:14.264Z,0.73
2023-08-29T05:47:58.278Z,0.65
2023-08-29T05:50:40.907Z,0.88
2023-08-29T05:53:23.536Z,0.70
2023-08-29T05:56:06.374Z,0.57
2023-08-29T05:58:49.063Z,0.70
2023-08-29T06:01:32.113Z,0.50
2023-08-29T06:04:16.253Z,0.50
2023-08-29T06:06:58.930Z,0.80
2023-08-29T06:09:41.596Z,0.70
2023-08-29T06:12:24.313Z,0.90
2023-08-29T06:15:07.650Z,0.80
2023-08-29T06:17:50.449Z,0.80
2023-08-29T06:20:34.872Z,0.80
2023-08-29T06:23:17.648Z,0.90
2023-08-29T06:26:00.907Z,0.60
2023-08-29T06:28:43.804Z,0.70
2023-08-29T06:31:26.551Z,0.90
2023-08-29T06:34:09.554Z,0.73
2023-08-29T06:36:53.630Z,0.60
2023-08-29T06:39:36.298Z,0.80
2023-08-29T06:42:19.059Z,0.80
2023-08-29T06:45:01.765Z,0.80
2023-08-29T06:47:44.621Z,1.00
2023-08-29T06:50:27.277Z,0.95
2023-08-29T06:53:11.270Z,1.02
2023-08-29T06:55:53.968Z,1.30
2023-08-29T06:58:36.665Z,2.10
2023-08-29T07:01:19.375Z,1.77
2023-08-29T07:04:02.102Z,2.50
2023-08-29T07:06:44.788Z,2.08
2023-08-29T07:09:29.106Z,1.73
2023-08-29T07:12:11.852Z,1.35
2023-08-29T07:14:54.898Z,2.05
2023-08-29T07:17:38.081Z,1.92
2023-08-29T07:20:21.027Z,1.80
2023-08-29T07:23:03.815Z,1.85
2023-08-29T07:25:48.962Z,1.58
2023-08-29T07:28:31.654Z,1.52
2023-08-29T07:31:14.390Z,1.27
2023-08-29T07:33:57.073Z,1.00
2023-08-29T07:36:39.772Z,1.42
2023-08-29T07:39:22.749Z,1.50
2023-08-29T07:42:07.099Z,1.55
2023-08-29T07:44:49.750Z,1.27
2023-08-29T07:47:32.472Z,1.20
2023-08-29T07:50:15.237Z,1.30
2023-08-29T07:52:57.967Z,1.20
2023-08-29T07:55:42.174Z,1.33
2023-08-29T07:58:26.210Z,1.23
2023-08-29T08:01:09.080Z,1.50
2023-08-29T08:03:51.992Z,1.20
2023-08-29T08:06:36.021Z,1.35
2023-08-29T08:09:18.664Z,1.10
2023-08-29T08:12:03.149Z,1.33
2023-08-29T08:14:47.268Z,1.38
2023-08-29T08:17:29.992Z,1.27
2023-08-29T08:20:13.393Z,1.48
2023-08-29T08:22:56.291Z,1.30
2023-08-29T08:25:38.957Z,1.30
2023-08-29T08:28:22.961Z,1.30
2023-08-29T08:31:08.038Z,1.00
2023-08-29T08:33:50.858Z,0.80
2023-08-29T08:36:34.078Z,1.10
2023-08-29T08:39:17.166Z,1.55
2023-08-29T08:42:00.019Z,1.30
2023-08-29T08:44:44.968Z,1.30
2023-08-29T08:47:29.301Z,1.20
2023-08-29T08:50:12.772Z,1.17
2023-08-29T08:52:55.752Z,1.60
2023-08-29T08:55:38.424Z,1.40
2023-08-29T08:58:21.057Z,1.10
2023-08-29T09:01:04.094Z,1.02
2023-08-29T09:03:48.216Z,1.20
2023-08-29T09:06:31.061Z,0.85
2023-08-29T09:09:16.966Z,0.90
2023-08-29T09:11:59.960Z,1.05
2023-08-29T09:14:43.356Z,1.00
2023-08-29T09:17:26.148Z,1.02
2023-08-29T09:20:12.145Z,1.35
2023-08-29T09:22:55.100Z,1.13
2023-08-29T09:25:37.845Z,1.30
2023-08-29T09:28:21.026Z,1.50
2023-08-29T09:31:07.101Z,1.85
2023-08-29T09:33:50.040Z,1.85
2023-08-29T09:36:35.139Z,1.80
2023-08-29T09:39:18.353Z,1.70
2023-08-29T09:42:02.694Z,1.52
2023-08-29T09:44:45.336Z,1.70
2023-08-29T09:47:31.081Z,1.20
2023-08-29T09:50:13.920Z,1.60
2023-08-29T09:52:59.084Z,1.30
2023-08-29T09:55:44.293Z,1.02
2023-08-29T09:58:29.415Z,0.73
2023-08-29T10:01:12.812Z,1.25
2023-08-29T10:03:55.701Z,1.08
2023-08-29T10:06:39.518Z,1.10
2023-08-29T10:09:25.508Z,0.75
2023-08-29T10:12:08.833Z,0.90
2023-08-29T10:14:51.850Z,0.90
2023-08-29T10:17:34.879Z,1.02
2023-08-29T10:20:19.478Z,0.70
2023-08-29T10:23:02.569Z,0.73
2023-08-29T10:25:47.474Z,0.68
2023-08-29T10:28:30.535Z,0.70
2023-08-29T10:31:13.364Z,0.50
2023-08-29T10:33:56.991Z,0.57
2023-08-29T10:36:40.304Z,0.60
2023-08-29T10:39:23.603Z,0.60
2023-08-29T10:42:10.257Z,0.63
2023-08-29T10:44:54.922Z,0.70
2023-08-29T10:47:47.232Z,0.68
2023-08-29T10:50:30.053Z,0.52
2023-08-29T10:53:17.965Z,0.73
2023-08-29T10:56:02.562Z,0.70
2023-08-29T10:58:48.788Z,0.70
2023-08-29T11:01:33.027Z,0.70
2023-08-29T11:04:15.804Z,0.68
2023-08-29T11:06:59.068Z,0.63
2023-08-29T11:09:42.580Z,0.70
2023-08-29T11:12:25.558Z,0.60
2023-08-29T11:15:11.831Z,0.70
2023-08-29T11:18:09.568Z,0.77
2023-08-29T11:20:53.180Z,0.70
2023-08-29T11:23:37.920Z,0.80
2023-08-29T11:26:20.978Z,0.70
2023-08-29T11:29:06.826Z,0.50
2023-08-29T11:31:51.063Z,0.65
2023-08-29T11:34:36.774Z,0.70
2023-08-29T11:37:19.412Z,0.60
2023-08-29T11:40:11.760Z,0.52
2023-08-29T11:43:20.358Z,0.73
2023-08-29T11:46:04.651Z,0.70
2023-08-29T11:48:48.771Z,0.65
2023-08-29T11:51:31.745Z,0.50
2023-08-29T11:54:33.207Z,0.60
2023-08-29T11:57:16.841Z,0.73
2023-08-29T11:59:59.731Z,0.52
2023-08-29T12:02:42.680Z,0.40
2023-08-29T12:05:26.967Z,0.60
2023-08-29T12:08:09.671Z,0.50
2023-08-29T12:10:53.171Z,0.60
2023-08-29T12:13:36.175Z,0.70
2023-08-29T12:16:19.076Z,0.60
2023-08-29T12:19:08.161Z,0.60
2023-08-29T12:21:58.153Z,0.70
2023-08-29T12:24:41.519Z,0.55
2023-08-29T12:27:24.197Z,0.50
2023-08-29T12:30:07.574Z,0.57
2023-08-29T12:32:50.401Z,0.50
2023-08-29T12:35:33.103Z,0.50
2023-08-29T12:38:17.186Z,0.60
2023-08-29T12:40:59.921Z,0.50
2023-08-29T12:43:42.664Z,0.60
2023-08-29T12:46:26.018Z,0.80
2023-08-29T12:49:09.093Z,0.57
2023-08-29T12:51:52.156Z,0.50
2023-08-29T12:54:36.977Z,0.52
2023-08-29T12:57:19.787Z,0.40
2023-08-29T13:00:02.549Z,0.50
2023-08-29T13:02:45.630Z,0.43
2023-08-29T13:05:28.443Z,0.70
2023-08-29T13:08:11.142Z,0.52
2023-08-29T13:10:55.229Z,0.60
2023-08-29T13:13:38.019Z,0.60
2023-08-29T13:16:20.708Z,0.75
2023-08-29T13:19:04.394Z,0.45
2023-08-29T13:21:47.117Z,0.75
2023-08-29T13:24:29.894Z,0.55
2023-08-29T13:27:14.090Z,0.82
2023-08-29T13:29:56.817Z,0.45
2023-08-29T13:32:40.627Z,0.60
2023-08-29T13:35:23.716Z,0.63
2023-08-29T13:38:08.106Z,0.80
2023-08-29T13:40:52.442Z,0.60
2023-08-29T13:43:36.516Z,0.40
2023-08-29T13:46:19.230Z,0.50
2023-08-29T13:49:02.000Z,0.60
2023-08-29T13:51:44.666Z,0.50
2023-08-29T13:54:27.428Z,0.55
2023-08-29T13:57:10.110Z,0.60
2023-08-29T13:59:54.297Z,0.50
2023-08-29T14:02:37.882Z,0.57
2023-08-29T14:05:21.195Z,0.50
2023-08-29T14:08:05.099Z,0.50
2023-08-29T14:10:48.342Z,0.45
2023-08-29T14:13:31.145Z,0.55
2023-08-29T14:16:15.210Z,0.47
2023-08-29T14:18:57.993Z,0.50
2023-08-29T14:21:40.703Z,0.50
2023-08-29T14:24:23.439Z,0.50
2023-08-29T14:27:06.547Z,0.50
2023-08-29T14:29:49.275Z,0.60
2023-08-29T14:32:33.379Z,0.60
2023-08-29T14:35:16.168Z,0.40
2023-08-29T14:38:00.522Z,0.50
2023-08-29T14:40:43.167Z,0.60
2023-08-29T14:43:25.861Z,0.43
2023-08-29T14:46:09.035Z,0.50
2023-08-29T14:48:53.831Z,0.47
2023-08-29T14:51:36.880Z,0.50
2023-08-29T14:54:19.514Z,0.60
2023-08-29T14:57:02.173Z,0.40
2023-08-29T14:59:44.946Z,0.50
2023-08-29T15:02:27.857Z,0.50
2023-08-29T15:05:12.741Z,0.40
2023-08-29T15:07:55.574Z,0.52
2023-08-29T15:10:38.284Z,0.50
2023-08-29T15:13:21.143Z,0.40
2023-08-29T15:16:06.124Z,0.30
2023-08-29T15:18:48.893Z,0.43
2023-08-29T15:21:32.909Z,0.57
2023-08-29T15:24:15.536Z,0.50
2023-08-29T15:26:58.244Z,0.50
2023-08-29T15:29:40.929Z,0.40
2023-08-29T15:32:23.630Z,0.47
2023-08-29T15:35:07.150Z,0.50
2023-08-29T15:37:51.173Z,0.40
2023-08-29T15:40:34.199Z,0.52
2023-08-29T15:43:17.208Z,0.40
2023-08-29T15:46:00.007Z,0.40
2023-08-29T15:48:42.749Z,0.40
2023-08-29T15:51:25.405Z,0.40
2023-08-29T15:54:09.474Z,0.38
2023-08-29T15:56:52.516Z,0.52
2023-08-29T15:59:35.413Z,0.50
2023-08-29T16:02:18.261Z,0.45
2023-08-29T16:05:00.959Z,0.45
2023-08-29T16:07:45.351Z,0.50
2023-08-29T16:10:29.874Z,0.50
2023-08-29T16:13:12.610Z,0.50
2023-08-29T16:15:56.267Z,0.60
2023-08-29T16:18:39.012Z,0.50
2023-08-29T16:21:21.714Z,0.40
2023-08-29T16:24:04.555Z,0.50
2023-08-29T16:26:48.583Z,0.40
2023-08-29T16:29:31.619Z,0.50
2023-08-29T16:32:14.357Z,0.50
2023-08-29T16:34:57.034Z,0.60
2023-08-29T16:37:39.859Z,0.40
2023-08-29T16:43:27.764Z,0.50
2023-08-29T16:46:13.331Z,0.60
2023-08-29T16:52:01.228Z,0.65
2023-08-29T16:54:43.952Z,0.50
2023-08-29T16:57:26.649Z,0.55
2023-08-29T17:00:12.150Z,0.50
2023-08-29T17:02:55.639Z,0.50
2023-08-29T17:05:38.552Z,0.60
2023-08-29T17:08:21.331Z,0.60
2023-08-29T17:11:04.542Z,0.50
2023-08-29T17:13:47.341Z,0.60
2023-08-29T17:16:31.722Z,0.60
2023-08-29T17:19:14.740Z,0.55
2023-08-29T17:21:57.784Z,0.40
2023-08-29T17:24:40.577Z,0.60
2023-08-29T17:27:23.417Z,0.65
2023-08-29T17:30:07.350Z,0.55
2023-08-29T17:32:51.585Z,0.68
2023-08-29T17:35:34.471Z,0.60
2023-08-29T17:38:17.681Z,0.55
2023-08-29T17:41:01.411Z,0.50
2023-08-29T17:43:44.217Z,0.80
2023-08-29T17:46:27.000Z,0.73
2023-08-29T17:49:11.338Z,0.63
2023-08-29T17:51:54.214Z,0.60
2023-08-29T17:54:36.892Z,0.80
2023-08-29T17:57:19.641Z,0.70
2023-08-29T18:00:02.644Z,0.65
2023-08-29T18:02:48.493Z,0.50
2023-08-29T18:05:32.960Z,0.70
2023-08-29T18:08:15.885Z,0.75
2023-08-29T18:10:59.028Z,0.60
2023-08-29T18:13:44.010Z,0.70
2023-08-29T18:16:28.807Z,0.70
2023-08-29T18:19:13.638Z,0.70
2023-08-29T18:22:01.916Z,0.52
2023-08-29T18:24:50.159Z,0.68
2023-08-29T18:27:34.516Z,0.70
2023-08-29T18:30:18.405Z,0.80
2023-08-29T18:33:05.049Z,2.88
2023-08-29T18:35:49.419Z,11.50
2023-08-29T18:38:35.897Z,2.80
2023-08-29T18:41:19.655Z,5.97
2023-08-29T18:44:04.991Z,4.10
2023-08-29T18:46:49.193Z,2.92
2023-08-29T18:49:33.458Z,2.38
2023-08-29T18:52:17.408Z,1.60
2023-08-29T18:55:01.917Z,1.90
2023-08-29T18:57:45.135Z,1.77
2023-08-29T19:00:29.286Z,1.67
2023-08-29T19:03:12.790Z,1.38
2023-08-29T19:05:56.405Z,1.17
2023-08-29T19:08:40.390Z,0.88
2023-08-29T19:11:25.468Z,0.82
2023-08-29T19:14:10.504Z,0.93
2023-08-29T19:16:57.604Z,1.00
2023-08-29T19:19:41.773Z,1.27
2023-08-29T19:22:25.074Z,1.40
2023-08-29T19:25:08.780Z,1.42
2023-08-29T19:27:56.028Z,1.77
2023-08-29T19:30:39.232Z,1.85
2023-08-29T19:33:22.693Z,1.77
2023-08-29T19:36:13.228Z,1.35
2023-08-29T19:39:04.958Z,1.20
2023-08-29T19:41:59.544Z,1.27
2023-08-29T19:44:44.001Z,1.30
2023-08-29T19:47:28.508Z,1.17
2023-08-29T19:50:12.832Z,1.20
2023-08-29T19:52:56.138Z,1.42
2023-08-29T19:55:39.408Z,1.00
2023-08-29T19:58:23.476Z,1.08
2023-08-29T20:01:08.107Z,0.90
2023-08-29T20:03:51.498Z,1.20
2023-08-29T20:06:35.157Z,0.82
2023-08-29T20:09:18.108Z,1.13
2023-08-29T20:12:01.552Z,1.00
2023-08-29T20:14:45.187Z,1.20
2023-08-29T20:17:29.926Z,1.30
2023-08-29T20:20:13.650Z,1.10
2023-08-29T20:22:56.827Z,1.00
2023-08-29T20:25:40.687Z,1.30
2023-08-29T20:28:23.958Z,1.08
2023-08-29T20:31:10.033Z,1.00
2023-08-29T20:33:54.551Z,1.13
2023-08-29T20:36:37.600Z,0.93
2023-08-29T20:39:22.001Z,0.90
2023-08-29T20:42:05.449Z,1.30
2023-08-29T20:44:50.893Z,1.00
2023-08-29T20:47:33.907Z,1.13
2023-08-29T20:50:18.835Z,1.70
2023-08-29T20:53:03.022Z,1.42
2023-08-29T20:55:47.332Z,1.75
2023-08-29T20:58:30.602Z,1.20
2023-08-29T21:01:18.037Z,1.42
2023-08-29T21:04:01.802Z,1.42
2023-08-29T21:06:46.113Z,1.75
2023-08-29T21:09:28.847Z,1.60
2023-08-29T21:12:11.556Z,1.60
2023-08-29T21:14:54.428Z,1.25
2023-08-29T21:17:37.251Z,1.30
2023-08-29T21:20:20.709Z,1.15
2023-08-29T21:23:05.134Z,1.30
2023-08-29T21:25:49.377Z,1.20
2023-08-29T21:28:32.363Z,1.33
2023-08-29T21:31:16.009Z,1.10
2023-08-29T21:33:59.166Z,1.20
2023-08-29T21:36:42.163Z,1.27
2023-08-29T21:39:26.587Z,1.20
2023-08-29T21:42:09.456Z,1.35
2023-08-29T21:44:53.055Z,1.30
2023-08-29T21:47:36.181Z,1.13
2023-08-29T21:50:19.174Z,1.23
2023-08-29T21:53:01.891Z,1.00
2023-08-29T21:55:46.516Z,1.30
2023-08-29T21:58:29.594Z,1.30
2023-08-29T22:01:12.919Z,1.20
2023-08-29T22:03:56.044Z,1.48
2023-08-29T22:06:38.912Z,1.30
2023-08-29T22:09:21.701Z,1.30
2023-08-29T22:12:06.479Z,1.10
2023-08-29T22:14:49.532Z,1.17
2023-08-29T22:17:32.692Z,1.40
2023-08-29T22:20:15.926Z,1.58
2023-08-29T22:22:58.741Z,1.30
2023-08-29T22:25:41.450Z,1.10
2023-08-29T22:28:25.585Z,1.20
2023-08-29T22:31:08.202Z,1.42
2023-08-29T22:33:50.867Z,1.33
2023-08-29T22:36:34.598Z,1.10
2023-08-29T22:39:17.234Z,1.45
2023-08-29T22:41:59.936Z,1.40
2023-08-29T22:44:44.848Z,1.27
2023-08-29T22:47:27.552Z,1.08
2023-08-29T22:50:10.324Z,1.40
2023-08-29T22:52:52.979Z,1.77
2023-08-29T22:55:36.842Z,1.30
2023-08-29T22:58:19.499Z,1.30
2023-08-29T23:01:08.566Z,1.10
2023-08-29T23:03:52.111Z,1.20
2023-08-29T23:06:34.780Z,1.38
2023-08-29T23:09:17.444Z,0.90
2023-08-29T23:12:00.200Z,1.27
2023-08-29T23:14:44.585Z,1.08
2023-08-29T23:17:29.332Z,1.10
2023-08-29T23:20:12.666Z,1.00
2023-08-29T23:22:55.344Z,1.20
2023-08-29T23:25:38.154Z,1.23
2023-08-29T23:28:20.780Z,1.02
2023-08-29T23:31:03.978Z,0.90
2023-08-29T23:33:55.276Z,1.20
2023-08-29T23:36:37.987Z,1.08
2023-08-29T23:39:20.599Z,1.20
2023-08-29T23:42:03.373Z,1.20
2023-08-29T23:44:46.041Z,1.48
2023-08-29T23:47:28.759Z,1.20
2023-08-29T23:50:12.961Z,0.95
2023-08-29T23:52:55.612Z,1.20
2023-08-29T23:55:38.245Z,1.15
2023-08-29T23:58:21.132Z,1.42
